Mugan — 9HA2962 — position and weather

sailwx.info

Track history (hours):
 
Tides and Currents Weather Stations Pressure Air Temp Water Temp Dewpoint Dewpoint Depression Visibility Wind Speed Wind Dir Waves Ship Positions

Mugan

Last reported at 2016-Dec-06 23:04 UTC. Time now 2016-Dec-07 22:23 UTC.
Position N 40°41' E 003°33'.

Length 140 m; draft 3.4 m.

Type: Ship. MMSI: 256914000.

Date/timePositionNaut miles runAvg speedWind from/ knotsBaromVisibWave heightAir tempDewpointWater temp
2016-Dec-06 23:04N 40°41' E 003°33'6 9.9
2016-Dec-06 22:29N 40°44' E 003°26'9 9.6
2016-Dec-06 21:33N 40°48' E 003°16'10 9.8
2016-Dec-06 20:33N 40°53' E 003°05'18 9.2
2016-Dec-06 18:33N 41°02' E 002°43'9 9.3
2016-Dec-06 17:33N 41°07' E 002°33'9 9.1
2016-Dec-06 16:33N 41°11' E 002°22'11 8.8
2016-Dec-06 15:18N 41°18' E 002°10'31 1.5
2016-Dec-05 18:17N 41°01' E 002°46'6 8.6
2016-Dec-05 17:33N 40°58' E 002°53'8 8.5
2016-Dec-05 16:33N 40°53' E 003°02'9 8.6
2016-Dec-05 15:33N 40°48' E 003°11'9 9.0
2016-Dec-05 14:33N 40°43' E 003°21'  
2016-Dec-03 03:33N 36°25' E 014°09'10 9.6
2016-Dec-03 02:33N 36°20' E 014°20'9 9.3
2016-Dec-03 01:33N 36°14' E 014°29'9 9.4
2016-Dec-03 00:33N 36°07' E 014°37'9 9.2
2016-Dec-02 23:32N 35°59' E 014°43'6 1.5
2016-Dec-02 19:32N 35°54' E 014°48'0 0.0
2016-Dec-02 18:11N 35°54' E 014°48'0 0.0
2016-Dec-02 17:20N 35°54' E 014°48'  
2016-Nov-28 01:17N 44°27' E 013°08'8 8.9
2016-Nov-28 00:26N 44°21' E 013°13'  
Track history (hours):
 
Tides and Currents Weather Stations Pressure Air Temp Water Temp Dewpoint Dewpoint Depression Visibility Wind Speed Wind Dir Waves Ship Positions

Mugan

Last reported at 2016-Dec-06 23:04 UTC. Time now 2016-Dec-07 22:23 UTC.
Position N 40°41' E 003°33'.

Length 140 m; draft 3.4 m.

Type: Ship. MMSI: 256914000.

Date/timePositionNaut miles runAvg speedWind from/ knotsBaromVisibWave heightAir tempDewpointWater temp
2016-Dec-06 23:04N 40°41' E 003°33'6 9.9
2016-Dec-06 22:29N 40°44' E 003°26'9 9.6
2016-Dec-06 21:33N 40°48' E 003°16'10 9.8
2016-Dec-06 20:33N 40°53' E 003°05'18 9.2
2016-Dec-06 18:33N 41°02' E 002°43'9 9.3
2016-Dec-06 17:33N 41°07' E 002°33'9 9.1
2016-Dec-06 16:33N 41°11' E 002°22'11 8.8
2016-Dec-06 15:18N 41°18' E 002°10'31 1.5
2016-Dec-05 18:17N 41°01' E 002°46'6 8.6
2016-Dec-05 17:33N 40°58' E 002°53'8 8.5
2016-Dec-05 16:33N 40°53' E 003°02'9 8.6
2016-Dec-05 15:33N 40°48' E 003°11'9 9.0
2016-Dec-05 14:33N 40°43' E 003°21'  
2016-Dec-03 03:33N 36°25' E 014°09'10 9.6
2016-Dec-03 02:33N 36°20' E 014°20'9 9.3
2016-Dec-03 01:33N 36°14' E 014°29'9 9.4
2016-Dec-03 00:33N 36°07' E 014°37'9 9.2
2016-Dec-02 23:32N 35°59' E 014°43'6 1.5
2016-Dec-02 19:32N 35°54' E 014°48'0 0.0
2016-Dec-02 18:11N 35°54' E 014°48'0 0.0
2016-Dec-02 17:20N 35°54' E 014°48'  
2016-Nov-28 01:17N 44°27' E 013°08'8 8.9
2016-Nov-28 00:26N 44°21' E 013°13'  

Dump ship's entire track history